Time;durP1;ratioP1;P1;durP2;ratioP2;P2;SDS_P1;SDS_P2;PMS_P1;PMS_P2;Temp;Humidity;BMP_temperature;BMP_pressure;BME280_temperature;BME280_humidity;BME280_pressure;Samples;Min_cycle;Max_cycle;Signal;HPM_P1;HPM_P2
2023/07/25 00:00:21;;;;;;;14.00;7.50;;;;;;;21.75;73.70;97651.63;107827;1308;23005;-51
2023/07/25 00:02:46;;;;;;;11.40;7.50;;;;;;;21.72;73.39;97657.56;107823;1307;22536;-48
2023/07/25 00:05:11;;;;;;;16.60;7.80;;;;;;;21.65;74.30;97656.09;107822;1307;22314;-51
2023/07/25 00:07:36;;;;;;;10.50;7.70;;;;;;;21.63;74.08;97652.12;107836;1307;22386;-48
2023/07/25 00:10:02;;;;;;;18.20;7.20;;;;;;;21.53;75.84;97649.81;107824;1308;22309;-50
2023/07/25 00:12:27;;;;;;;12.80;7.10;;;;;;;21.49;76.01;97656.21;107828;1307;22427;-49
2023/07/25 00:14:53;;;;;;;12.00;8.00;;;;;;;21.46;76.62;97657.30;107837;1307;23001;-51
2023/07/25 00:17:18;;;;;;;12.50;7.20;;;;;;;21.45;74.91;97658.91;107828;1308;23485;-52
2023/07/25 00:19:43;;;;;;;12.00;7.60;;;;;;;21.43;75.82;97665.29;107823;1307;22449;-48
2023/07/25 00:22:09;;;;;;;11.30;7.90;;;;;;;21.39;76.10;97662.56;107803;1308;23191;-49
2023/07/25 00:24:34;;;;;;;14.40;7.60;;;;;;;21.38;75.25;97668.42;107813;1307;22305;-44
2023/07/25 00:26:59;;;;;;;16.70;7.70;;;;;;;21.37;75.31;97670.87;107849;1302;22250;-50
2023/07/25 00:29:24;;;;;;;14.30;8.20;;;;;;;21.36;75.37;97673.13;107822;1307;22304;-49
2023/07/25 00:31:50;;;;;;;11.00;7.30;;;;;;;21.31;76.79;97669.33;107838;1294;22396;-49
2023/07/25 00:34:15;;;;;;;15.90;7.60;;;;;;;21.28;76.91;97675.89;107809;1308;23052;-50
2023/07/25 00:36:40;;;;;;;12.50;7.80;;;;;;;21.21;77.68;97675.42;107824;1308;22276;-50
2023/07/25 00:39:06;;;;;;;16.20;7.90;;;;;;;21.19;76.84;97676.03;107838;1308;22475;-49
2023/07/25 00:41:31;;;;;;;15.90;8.10;;;;;;;21.15;77.34;97675.91;107821;1308;22257;-48
2023/07/25 00:43:56;;;;;;;13.70;7.90;;;;;;;21.15;76.94;97675.90;107829;1307;22324;-50
2023/07/25 00:46:22;;;;;;;15.10;7.70;;;;;;;21.16;76.21;97674.52;107848;1308;22287;-51
2023/07/25 00:48:47;;;;;;;10.70;7.00;;;;;;;21.14;76.64;97677.70;107850;1307;22234;-49
2023/07/25 00:51:13;;;;;;;10.80;7.60;;;;;;;21.13;75.95;97672.94;107829;1307;23622;-54
2023/07/25 00:53:38;;;;;;;11.20;6.80;;;;;;;21.11;76.19;97665.96;107859;1289;22443;-44
2023/07/25 00:56:05;;;;;;;9.60;7.40;;;;;;;21.07;76.28;97660.79;107818;1308;22238;-49
2023/07/25 00:58:31;;;;;;;12.00;7.30;;;;;;;21.06;76.29;97656.17;107821;1308;22548;-51
2023/07/25 01:01:03;;;;;;;14.70;7.20;;;;;;;21.04;75.82;97651.30;107813;1307;22462;-46
2023/07/25 01:03:29;;;;;;;11.00;7.20;;;;;;;21.03;75.68;97648.17;107850;1308;22212;-50
2023/07/25 01:05:56;;;;;;;11.50;7.10;;;;;;;21.05;75.45;97645.96;107844;1308;22496;-45
2023/07/25 01:08:22;;;;;;;10.80;7.50;;;;;;;21.06;74.92;97644.90;107830;1307;22256;-49
2023/07/25 01:10:47;;;;;;;11.80;7.10;;;;;;;21.08;74.65;97652.83;107837;1308;22238;-49
2023/07/25 01:13:12;;;;;;;14.30;7.20;;;;;;;21.07;74.94;97653.58;107819;1308;22474;-45
2023/07/25 01:15:38;;;;;;;13.70;7.30;;;;;;;21.05;74.67;97659.08;107806;1308;22267;-51
2023/07/25 01:18:05;;;;;;;11.80;7.50;;;;;;;21.03;75.34;97654.70;107825;1308;23405;-48
2023/07/25 01:20:33;;;;;;;10.80;7.60;;;;;;;21.03;75.48;97653.14;107830;1288;22980;-49
2023/07/25 01:23:00;;;;;;;12.40;7.60;;;;;;;21.02;75.29;97649.94;107860;1284;22600;-51
2023/07/25 01:25:25;;;;;;;14.90;7.90;;;;;;;21.00;75.07;97651.92;107812;1308;23019;-50
2023/07/25 01:27:50;;;;;;;10.80;7.00;;;;;;;20.98;75.35;97660.58;107811;1308;23378;-53
2023/07/25 01:30:16;;;;;;;13.70;8.40;;;;;;;20.95;75.96;97668.04;107823;1307;22306;-47
2023/07/25 01:32:41;;;;;;;14.80;7.20;;;;;;;20.93;76.02;97671.52;107830;1308;22237;-45
2023/07/25 01:35:07;;;;;;;9.70;6.90;;;;;;;20.92;75.73;97668.05;107859;1308;22406;-50
2023/07/25 01:37:32;;;;;;;11.60;7.80;;;;;;;20.91;75.44;97676.58;107823;1307;23064;-47
2023/07/25 01:39:58;;;;;;;13.00;7.30;;;;;;;20.90;75.44;97683.65;107857;1307;22255;-43
2023/07/25 01:42:23;;;;;;;11.00;7.10;;;;;;;20.85;76.27;97684.48;107800;1307;22303;-54
2023/07/25 01:44:48;;;;;;;14.70;7.50;;;;;;;20.83;76.12;97685.28;107844;1307;22237;-51
2023/07/25 01:47:13;;;;;;;12.80;7.40;;;;;;;20.82;75.93;97683.47;107814;1308;24236;-45
2023/07/25 01:49:39;;;;;;;15.40;7.80;;;;;;;20.81;76.03;97681.40;107842;1301;22448;-46
2023/07/25 01:52:04;;;;;;;13.30;7.20;;;;;;;20.76;76.49;97675.60;107810;1308;22227;-47
2023/07/25 01:54:30;;;;;;;11.30;7.20;;;;;;;20.71;77.01;97680.23;107829;1307;22252;-46
2023/07/25 01:56:55;;;;;;;12.80;7.50;;;;;;;20.68;76.95;97683.70;107827;1308;22298;-52
2023/07/25 01:59:20;;;;;;;12.40;7.60;;;;;;;20.66;76.83;97680.91;107838;1308;23477;-49
2023/07/25 02:01:46;;;;;;;15.30;7.90;;;;;;;20.60;77.51;97682.20;107823;1308;22451;-47
2023/07/25 02:04:11;;;;;;;13.90;8.30;;;;;;;20.58;77.37;97682.77;107826;1308;22236;-46
2023/07/25 02:06:36;;;;;;;11.30;7.50;;;;;;;20.56;77.03;97685.30;107846;1308;22307;-50
2023/07/25 02:09:02;;;;;;;16.30;7.70;;;;;;;20.57;76.88;97692.22;107833;1307;22430;-47
2023/07/25 02:11:28;;;;;;;17.60;7.90;;;;;;;20.52;77.43;97692.60;107838;1307;22239;-48
2023/07/25 02:13:53;;;;;;;10.90;8.10;;;;;;;20.49;77.71;97694.54;107841;1307;23291;-51
2023/07/25 02:16:19;;;;;;;10.80;7.70;;;;;;;20.43;78.11;97695.91;107849;1289;22320;-50
2023/07/25 02:18:45;;;;;;;10.00;7.20;;;;;;;20.37;78.90;97692.30;107817;1308;22222;-52
2023/07/25 02:21:10;;;;;;;10.80;7.70;;;;;;;20.37;77.89;97691.16;107827;1307;22288;-47
2023/07/25 02:23:35;;;;;;;14.70;7.10;;;;;;;20.33;78.24;97685.97;107841;1308;22351;-56
2023/07/25 02:26:00;;;;;;;17.10;7.70;;;;;;;20.30;78.69;97684.30;107809;1307;23212;-53
2023/07/25 02:28:26;;;;;;;10.80;7.50;;;;;;;20.29;78.25;97687.98;107836;1308;22233;-47
2023/07/25 02:30:52;;;;;;;15.00;7.90;;;;;;;20.27;78.32;97696.09;107852;1308;22329;-50
2023/07/25 02:33:17;;;;;;;12.00;7.30;;;;;;;20.23;78.39;97702.64;107832;1308;22297;-53
2023/07/25 02:35:42;;;;;;;12.00;7.30;;;;;;;20.18;78.76;97700.35;107856;1308;22506;-49
2023/07/25 02:38:08;;;;;;;12.70;7.60;;;;;;;20.19;78.78;97700.11;107828;1307;23147;-49
2023/07/25 02:43:52;;;;;;;12.30;8.20;;;;;;;20.16;78.73;97710.64;107404;1301;545771;-48
2023/07/25 02:46:17;;;;;;;13.00;8.50;;;;;;;20.06;79.62;97711.81;107667;1309;22354;-50
2023/07/25 02:48:43;;;;;;;12.90;7.20;;;;;;;20.10;78.86;97716.09;107675;1309;23150;-53
2023/07/25 02:51:08;;;;;;;12.60;7.70;;;;;;;20.08;78.74;97719.40;107651;1309;22235;-51
2023/07/25 02:53:33;;;;;;;14.30;7.40;;;;;;;20.06;78.47;97724.23;107690;1291;22854;-45
2023/07/25 02:55:58;;;;;;;13.10;7.20;;;;;;;20.06;78.20;97723.52;107682;1309;22689;-52
2023/07/25 02:58:25;;;;;;;12.40;7.20;;;;;;;20.06;78.00;97723.48;107807;1307;142245;-44
2023/07/25 03:00:50;;;;;;;13.10;7.20;;;;;;;20.05;78.45;97724.06;107613;1307;22488;-46
2023/07/25 03:03:16;;;;;;;19.20;7.10;;;;;;;20.06;77.64;97724.91;107908;1307;22427;-51
2023/07/25 03:05:41;;;;;;;13.50;7.30;;;;;;;20.05;77.78;97722.79;107921;1307;22263;-52
2023/07/25 03:08:06;;;;;;;14.60;6.90;;;;;;;20.06;77.04;97726.88;107607;1306;22391;-50
2023/07/25 03:10:32;;;;;;;12.10;7.10;;;;;;;20.03;77.01;97725.23;107918;1307;23073;-47
2023/07/25 03:12:57;;;;;;;10.20;6.30;;;;;;;20.01;77.03;97724.14;107920;1307;22254;-51
2023/07/25 03:15:23;;;;;;;17.30;6.70;;;;;;;19.99;77.24;97722.74;107903;1307;22450;-49
2023/07/25 03:17:48;;;;;;;9.30;6.60;;;;;;;19.98;77.10;97727.01;107903;1307;23284;-50
2023/07/25 03:20:13;;;;;;;10.80;6.60;;;;;;;19.94;77.20;97727.40;107913;1307;22250;-50
2023/07/25 03:22:39;;;;;;;10.30;6.90;;;;;;;19.92;77.36;97733.04;107917;1307;24227;-48
2023/07/25 03:25:04;;;;;;;13.00;6.90;;;;;;;19.90;77.59;97735.88;107865;1297;22255;-50
2023/07/25 03:27:29;;;;;;;13.10;7.20;;;;;;;19.87;77.71;97737.56;107905;1307;23096;-53
2023/07/25 03:29:55;;;;;;;11.40;6.90;;;;;;;19.83;77.44;97740.86;107888;1307;22413;-48
2023/07/25 03:32:20;;;;;;;12.30;6.60;;;;;;;19.81;77.03;97743.38;107882;1307;22252;-53
2023/07/25 03:34:45;;;;;;;11.20;6.50;;;;;;;19.76;77.14;97741.65;107871;1307;22251;-47
2023/07/25 03:37:11;;;;;;;10.20;7.20;;;;;;;19.76;77.01;97734.20;107890;1307;23234;-48
2023/07/25 03:39:36;;;;;;;14.50;7.00;;;;;;;19.74;76.54;97738.55;107896;1307;23221;-50
2023/07/25 03:42:02;;;;;;;10.70;7.00;;;;;;;19.72;76.58;97739.48;107905;1307;22973;-48
2023/07/25 03:44:27;;;;;;;8.50;6.00;;;;;;;19.69;76.12;97740.27;107898;1307;22262;-49
2023/07/25 03:46:53;;;;;;;7.30;5.60;;;;;;;19.66;75.97;97743.89;107858;1307;22362;-51
2023/07/25 03:49:18;;;;;;;8.70;5.60;;;;;;;19.65;75.63;97748.92;107897;1307;22501;-48
2023/07/25 03:51:44;;;;;;;10.10;5.70;;;;;;;19.64;75.35;97749.11;107867;1307;22604;-47
2023/07/25 03:54:09;;;;;;;10.20;5.50;;;;;;;19.64;75.03;97755.14;107854;1307;22467;-49
2023/07/25 03:56:35;;;;;;;10.60;5.90;;;;;;;19.63;75.13;97760.91;107870;1307;22280;-51
2023/07/25 03:59:00;;;;;;;9.50;6.00;;;;;;;19.65;75.15;97762.47;107839;1307;22438;-47
2023/07/25 04:01:26;;;;;;;10.00;5.90;;;;;;;19.69;75.23;97763.46;107852;1307;22466;-44
2023/07/25 04:03:51;;;;;;;10.10;5.60;;;;;;;19.73;75.28;97767.28;107837;1307;22231;-52
2023/07/25 04:06:17;;;;;;;11.10;6.30;;;;;;;19.77;75.24;97769.00;107873;1307;22301;-45
2023/07/25 04:08:43;;;;;;;9.30;5.70;;;;;;;19.76;75.58;97772.96;107868;1307;22442;-49
2023/07/25 04:11:08;;;;;;;10.20;5.70;;;;;;;19.76;75.06;97769.56;107870;1307;22880;-51
2023/07/25 04:13:33;;;;;;;9.80;6.20;;;;;;;19.79;74.95;97770.91;107839;1307;22284;-54
2023/07/25 04:15:59;;;;;;;11.10;5.90;;;;;;;19.78;75.13;97772.14;107862;1307;23247;-51
2023/07/25 04:18:24;;;;;;;7.30;5.60;;;;;;;19.81;74.55;97771.46;107882;1307;22413;-49
2023/07/25 04:20:49;;;;;;;7.60;5.00;;;;;;;19.80;74.63;97772.87;107876;1307;22351;-44
2023/07/25 04:23:17;;;;;;;16.00;5.50;;;;;;;19.82;73.94;97776.05;107853;1307;22439;-48
2023/07/25 04:25:43;;;;;;;8.70;4.90;;;;;;;19.85;73.66;97775.69;107888;1307;22857;-52
2023/07/25 04:28:09;;;;;;;9.60;4.40;;;;;;;19.84;72.58;97780.94;107855;1307;22932;-51
2023/07/25 04:30:35;;;;;;;6.50;4.30;;;;;;;19.85;72.14;97784.15;107873;1300;22266;-49
2023/07/25 04:33:00;;;;;;;6.20;4.10;;;;;;;19.87;71.88;97785.70;107861;1307;22278;-49
